Time;durP1;ratioP1;P1;durP2;ratioP2;P2;SDS_P1;SDS_P2;PMS_P1;PMS_P2;Temp;Humidity;BMP_temperature;BMP_pressure;BME280_temperature;BME280_humidity;BME280_pressure;Samples;Min_cycle;Max_cycle;Signal;HPM_P1;HPM_P2
2024/02/04 05:02:35;;;;;;;13.50;4.30;;;6.10;99.90;;;;;;5005844;23;20502;-70
2024/02/04 05:05:02;;;;;;;3.13;2.78;;;6.10;99.90;;;;;;4993140;28;21787;-70
2024/02/04 05:07:29;;;;;;;4.38;3.90;;;6.00;99.90;;;;;;4990493;28;20316;-70
2024/02/04 05:09:56;;;;;;;4.38;3.92;;;6.00;99.90;;;;;;4992582;28;20209;-70
2024/02/04 05:12:22;;;;;;;4.95;3.90;;;6.00;99.90;;;;;;4993085;28;20237;-70
2024/02/04 05:14:49;;;;;;;5.03;3.78;;;6.10;99.90;;;;;;4985479;28;20219;-70
2024/02/04 05:17:16;;;;;;;4.60;3.75;;;6.00;99.90;;;;;;4988938;28;20206;-70
2024/02/04 05:19:44;;;;;;;7.57;4.93;;;6.00;99.90;;;;;;4992518;28;20694;-71
2024/02/04 05:22:11;;;;;;;3.92;3.63;;;6.00;99.90;;;;;;4990053;28;20230;-70
2024/02/04 05:24:38;;;;;;;4.13;3.72;;;6.00;99.90;;;;;;4993953;28;20218;-70
2024/02/04 05:27:05;;;;;;;4.93;4.53;;;6.00;99.90;;;;;;4991272;28;20219;-70
2024/02/04 05:29:32;;;;;;;6.00;3.95;;;6.00;99.90;;;;;;4993711;28;20235;-70
2024/02/04 05:31:58;;;;;;;12.02;4.60;;;6.00;99.90;;;;;;4991412;28;20229;-70
2024/02/04 05:34:25;;;;;;;3.05;2.85;;;6.10;99.90;;;;;;4992046;28;20224;-70
2024/02/04 05:36:53;;;;;;;7.30;3.55;;;6.00;99.90;;;;;;4989121;28;20213;-70
2024/02/04 05:39:20;;;;;;;6.57;3.60;;;6.00;99.90;;;;;;4991304;28;20201;-70
2024/02/04 05:41:46;;;;;;;3.70;3.25;;;6.10;99.90;;;;;;4992999;28;20245;-70
2024/02/04 05:44:13;;;;;;;2.92;2.83;;;6.10;99.90;;;;;;4993573;28;20254;-70
2024/02/04 05:46:40;;;;;;;6.85;3.40;;;6.10;99.90;;;;;;4990977;28;20590;-70
2024/02/04 05:49:07;;;;;;;3.25;2.85;;;6.10;99.90;;;;;;4992451;28;20205;-70
2024/02/04 05:51:38;;;;;;;5.13;3.10;;;6.10;99.90;;;;;;4990902;28;20226;-70
2024/02/04 05:54:06;;;;;;;7.93;4.10;;;6.10;99.90;;;;;;4991576;28;20209;-70
2024/02/04 05:56:33;;;;;;;3.75;3.15;;;6.10;99.90;;;;;;4993124;28;20593;-70
2024/02/04 05:59:00;;;;;;;12.10;2.40;;;6.10;99.90;;;;;;4993162;28;20210;-69
2024/02/04 06:01:26;;;;;;;2.78;2.58;;;6.10;99.90;;;;;;4992356;28;20235;-71
2024/02/04 06:03:53;;;;;;;3.20;3.00;;;6.10;99.90;;;;;;4993131;28;20257;-70
2024/02/04 06:06:20;;;;;;;2.40;2.30;;;6.20;99.90;;;;;;4990988;28;20207;-70
2024/02/04 06:08:47;;;;;;;4.47;2.75;;;6.20;99.90;;;;;;4993545;28;20214;-71
2024/02/04 06:11:16;;;;;;;3.08;2.08;;;6.20;99.90;;;;;;4993504;28;20237;-70
2024/02/04 06:13:44;;;;;;;2.70;2.55;;;6.20;99.90;;;;;;4994265;28;20693;-70
2024/02/04 06:16:11;;;;;;;5.75;2.42;;;6.10;99.90;;;;;;4993877;28;20206;-71
2024/02/04 06:18:38;;;;;;;2.22;1.92;;;6.20;99.90;;;;;;4987145;28;20583;-71
2024/02/04 06:21:05;;;;;;;2.40;2.20;;;6.20;99.90;;;;;;4992598;28;20235;-70
2024/02/04 06:23:32;;;;;;;8.70;3.33;;;6.20;99.90;;;;;;4993813;28;20243;-71
2024/02/04 06:25:59;;;;;;;10.75;3.63;;;6.20;99.90;;;;;;4991832;28;20221;-71
2024/02/04 06:28:27;;;;;;;8.23;2.67;;;6.20;99.90;;;;;;4992875;28;20205;-70
2024/02/04 06:30:54;;;;;;;2.33;2.30;;;6.20;99.90;;;;;;4990840;28;20229;-70
2024/02/04 06:33:22;;;;;;;6.07;2.50;;;6.30;99.90;;;;;;4993238;28;20198;-70
2024/02/04 06:35:49;;;;;;;2.83;1.98;;;6.30;99.90;;;;;;4992590;28;20264;-69
2024/02/04 06:38:15;;;;;;;9.18;2.95;;;6.30;99.90;;;;;;4984358;28;20773;-69
2024/02/04 06:40:42;;;;;;;1.77;1.67;;;6.30;99.90;;;;;;4990853;28;20234;-69
2024/02/04 06:43:09;;;;;;;8.20;3.03;;;6.30;99.90;;;;;;4992982;28;20683;-70
2024/02/04 06:45:37;;;;;;;12.38;2.42;;;6.30;99.90;;;;;;4992151;28;20214;-70
2024/02/04 06:48:04;;;;;;;7.60;3.22;;;6.30;99.90;;;;;;4993413;28;20214;-70
2024/02/04 06:50:31;;;;;;;5.07;3.42;;;6.30;99.90;;;;;;4989679;28;20364;-70
2024/02/04 06:52:57;;;;;;;3.80;2.58;;;6.30;99.90;;;;;;4991315;28;20207;-70
2024/02/04 06:55:24;;;;;;;4.35;2.35;;;6.30;99.90;;;;;;4991358;28;20200;-71
2024/02/04 06:57:51;;;;;;;7.00;2.13;;;6.30;99.90;;;;;;4988919;28;20553;-72
2024/02/04 07:00:17;;;;;;;2.42;2.17;;;6.20;99.90;;;;;;4989136;28;20250;-69
2024/02/04 07:02:45;;;;;;;4.50;3.70;;;6.30;99.90;;;;;;4992914;28;20218;-72
2024/02/04 07:05:12;;;;;;;1.15;1.15;;;6.30;99.90;;;;;;4992170;28;20206;-71
2024/02/04 07:07:39;;;;;;;1.60;1.50;;;6.30;99.90;;;;;;4988162;28;20215;-70
2024/02/04 07:10:07;;;;;;;1.35;1.35;;;6.40;99.90;;;;;;4990429;28;20210;-69
2024/02/04 07:12:33;;;;;;;2.58;1.35;;;6.30;99.90;;;;;;4991880;28;20311;-70
2024/02/04 07:15:00;;;;;;;2.38;2.03;;;6.30;99.90;;;;;;4986731;28;20579;-70
2024/02/04 07:17:27;;;;;;;1.25;1.20;;;6.20;99.90;;;;;;4989564;28;20215;-71
2024/02/04 07:19:55;;;;;;;7.25;2.33;;;6.20;99.90;;;;;;4991383;28;20277;-69
2024/02/04 07:22:22;;;;;;;4.10;1.80;;;6.20;99.90;;;;;;4990647;28;20313;-69
2024/02/04 07:24:49;;;;;;;2.75;2.10;;;6.20;99.90;;;;;;4987014;28;20710;-70
2024/02/04 07:27:15;;;;;;;2.67;1.30;;;6.20;99.90;;;;;;4992386;28;20208;-70
2024/02/04 07:29:42;;;;;;;1.10;1.10;;;6.20;99.90;;;;;;4994866;28;20231;-70
2024/02/04 07:32:09;;;;;;;2.03;1.88;;;6.20;99.90;;;;;;4989695;28;20283;-71
2024/02/04 07:34:36;;;;;;;4.80;1.23;;;6.20;99.90;;;;;;4988425;28;20214;-70
2024/02/04 07:37:04;;;;;;;8.25;1.42;;;6.20;99.90;;;;;;4989483;28;20220;-70
2024/02/04 07:39:31;;;;;;;2.40;1.33;;;6.20;99.90;;;;;;4989951;28;20214;-70
2024/02/04 07:41:59;;;;;;;1.85;1.20;;;6.30;99.90;;;;;;4982805;28;20237;-69
2024/02/04 07:44:26;;;;;;;8.68;1.73;;;6.30;99.90;;;;;;4986866;28;20661;-70
2024/02/04 07:46:53;;;;;;;8.40;1.67;;;6.30;99.90;;;;;;4990004;28;20652;-70
2024/02/04 07:49:20;;;;;;;7.88;1.55;;;6.30;99.90;;;;;;4990609;28;20207;-70
2024/02/04 07:51:47;;;;;;;4.72;1.67;;;6.30;99.90;;;;;;4988677;28;20231;-69
2024/02/04 07:54:15;;;;;;;0.93;0.93;;;6.30;99.90;;;;;;4985785;28;20218;-71
2024/02/04 07:56:41;;;;;;;7.90;6.20;;;6.30;99.90;;;;;;4987038;28;20213;-69
2024/02/04 07:59:08;;;;;;;4.07;3.72;;;6.30;99.90;;;;;;4987706;28;20670;-69
2024/02/04 08:01:35;;;;;;;3.15;2.42;;;6.30;99.90;;;;;;4988438;28;20724;-69
2024/02/04 08:04:02;;;;;;;5.28;1.45;;;6.30;99.90;;;;;;4985838;28;20600;-70
2024/02/04 08:06:28;;;;;;;3.40;1.63;;;6.40;99.90;;;;;;4987191;28;20233;-70
2024/02/04 08:08:55;;;;;;;2.63;1.70;;;6.40;99.90;;;;;;4987972;28;20206;-73
2024/02/04 08:11:23;;;;;;;4.28;3.17;;;6.40;99.90;;;;;;4990072;28;20231;-70
2024/02/04 08:13:50;;;;;;;3.13;2.50;;;6.40;99.90;;;;;;4984867;28;20206;-70
2024/02/04 08:16:16;;;;;;;4.10;2.60;;;6.50;99.90;;;;;;4989254;28;20215;-69
2024/02/04 08:18:43;;;;;;;2.60;2.40;;;6.50;99.90;;;;;;4985744;28;20744;-71
2024/02/04 08:21:14;;;;;;;1.85;1.75;;;6.50;99.90;;;;;;4987412;28;20318;-70
2024/02/04 08:23:41;;;;;;;2.20;1.75;;;6.50;99.90;;;;;;4984330;28;20243;-69
2024/02/04 08:26:07;;;;;;;1.60;1.60;;;6.50;99.90;;;;;;4988899;28;20217;-70
2024/02/04 08:28:35;;;;;;;8.27;3.17;;;6.60;99.90;;;;;;4989359;28;20211;-70
2024/02/04 08:31:02;;;;;;;3.35;1.52;;;6.60;99.90;;;;;;4987540;28;20238;-70
2024/02/04 08:33:29;;;;;;;4.85;1.95;;;6.60;99.90;;;;;;4986241;28;20203;-72
2024/02/04 08:35:55;;;;;;;11.10;2.05;;;6.70;99.90;;;;;;4990001;28;20207;-70
2024/02/04 08:38:22;;;;;;;5.80;1.90;;;6.70;99.90;;;;;;4985739;28;20215;-71
2024/02/04 08:40:49;;;;;;;3.80;1.35;;;6.80;99.90;;;;;;4989312;28;20231;-71
2024/02/04 08:43:16;;;;;;;3.22;1.25;;;6.80;99.90;;;;;;4989931;28;20813;-70
2024/02/04 08:45:44;;;;;;;3.90;3.15;;;6.80;99.90;;;;;;4987057;28;20650;-71
2024/02/04 08:48:11;;;;;;;2.30;1.77;;;6.80;99.90;;;;;;4991565;28;20214;-70
2024/02/04 08:50:37;;;;;;;3.70;2.65;;;6.80;99.90;;;;;;4992482;28;20231;-71
2024/02/04 08:53:04;;;;;;;6.55;1.75;;;6.90;99.90;;;;;;4991653;28;20222;-72
2024/02/04 08:55:31;;;;;;;2.20;2.10;;;6.90;99.90;;;;;;4985589;28;20213;-70
2024/02/04 08:57:58;;;;;;;6.57;2.78;;;7.00;99.90;;;;;;4988533;28;20207;-70
2024/02/04 09:00:24;;;;;;;7.95;1.98;;;7.00;99.90;;;;;;4989948;28;20589;-72
2024/02/04 09:02:52;;;;;;;1.73;1.50;;;7.00;99.90;;;;;;4986629;28;20218;-70
2024/02/04 09:05:20;;;;;;;4.10;2.42;;;7.10;99.90;;;;;;4987665;28;20273;-70
2024/02/04 09:07:46;;;;;;;3.65;2.35;;;7.10;99.90;;;;;;4988281;28;20207;-72
2024/02/04 09:10:13;;;;;;;5.40;2.25;;;7.20;99.90;;;;;;4990865;28;20215;-70
2024/02/04 09:12:40;;;;;;;2.63;2.45;;;7.20;99.90;;;;;;4990448;28;20587;-70
2024/02/04 09:15:08;;;;;;;6.63;3.05;;;7.20;99.90;;;;;;4985671;28;20210;-70
2024/02/04 09:17:35;;;;;;;3.65;2.25;;;7.30;99.90;;;;;;4990646;28;20800;-71
2024/02/04 09:20:03;;;;;;;2.22;2.00;;;7.40;99.90;;;;;;4991067;28;20208;-70
2024/02/04 09:22:30;;;;;;;2.30;2.13;;;7.30;99.90;;;;;;4992422;28;20219;-70
2024/02/04 09:24:57;;;;;;;3.33;2.30;;;7.40;99.90;;;;;;4993422;28;20698;-71
2024/02/04 09:27:24;;;;;;;3.95;2.28;;;7.40;99.90;;;;;;4987267;28;20221;-70
2024/02/04 09:29:50;;;;;;;2.45;2.22;;;7.50;99.90;;;;;;4990908;28;20208;-71
2024/02/04 09:32:17;;;;;;;2.63;2.53;;;7.50;99.90;;;;;;4987998;28;20239;-72
2024/02/04 09:34:44;;;;;;;5.57;2.10;;;7.50;99.90;;;;;;4990460;28;20215;-70
2024/02/04 09:37:12;;;;;;;2.58;2.47;;;7.60;99.90;;;;;;4987437;28;20215;-69
2024/02/04 09:39:38;;;;;;;3.22;3.00;;;7.60;99.90;;;;;;4992650;28;20596;-69
2024/02/04 09:42:05;;;;;;;3.10;2.45;;;7.60;99.90;;;;;;4991339;28;20228;-73
2024/02/04 09:44:33;;;;;;;3.25;2.75;;;7.60;99.90;;;;;;4991530;28;20671;-69
2024/02/04 09:47:00;;;;;;;3.50;3.10;;;7.60;99.90;;;;;;4989455;28;20730;-71
2024/02/04 09:49:28;;;;;;;4.05;3.42;;;7.60;99.90;;;;;;4991959;28;20222;-71
2024/02/04 09:51:57;;;;;;;6.68;3.25;;;7.60;99.90;;;;;;4989291;28;20254;-71
2024/02/04 09:54:25;;;;;;;3.05;2.25;;;7.60;99.90;;;;;;4990199;28;20220;-70
2024/02/04 09:56:53;;;;;;;3.63;2.47;;;7.60;99.90;;;;;;4987140;28;20543;-70
2024/02/04 09:59:19;;;;;;;5.78;2.40;;;7.60;99.90;;;;;;4990217;28;20200;-71
2024/02/04 10:01:47;;;;;;;2.38;2.00;;;7.60;99.90;;;;;;4991236;28;20254;-70
2024/02/04 10:04:14;;;;;;;8.05;2.90;;;7.60;99.90;;;;;;4993670;28;20600;-70
2024/02/04 10:06:40;;;;;;;4.60;2.10;;;7.60;99.90;;;;;;4992243;28;20211;-70
2024/02/04 10:09:07;;;;;;;7.63;3.05;;;7.70;99.90;;;;;;4992981;28;20209;-70
2024/02/04 10:11:35;;;;;;;2.60;2.40;;;7.70;99.90;;;;;;4988120;28;21717;-71
2024/02/04 10:14:02;;;;;;;2.22;2.13;;;7.70;99.90;;;;;;4993823;28;20200;-70
2024/02/04 10:16:29;;;;;;;7.53;2.25;;;7.70;99.90;;;;;;4990430;28;20215;-69
2024/02/04 10:18:56;;;;;;;3.50;1.70;;;7.80;99.90;;;;;;4990570;28;20226;-71
2024/02/04 10:21:24;;;;;;;1.90;1.70;;;7.80;99.90;;;;;;4989992;28;20228;-70
2024/02/04 10:23:52;;;;;;;2.47;1.70;;;7.80;99.90;;;;;;4988038;28;20220;-68
2024/02/04 10:26:20;;;;;;;1.90;1.60;;;7.80;99.90;;;;;;4991644;28;20210;-71
2024/02/04 10:28:48;;;;;;;1.48;1.27;;;7.80;99.90;;;;;;4992412;28;20215;-70
2024/02/04 10:31:16;;;;;;;1.90;1.50;;;7.80;99.90;;;;;;4990594;28;20698;-74
2024/02/04 10:33:42;;;;;;;4.47;3.20;;;7.80;99.90;;;;;;4988195;28;20214;-70
2024/02/04 10:36:09;;;;;;;4.13;1.55;;;7.80;99.90;;;;;;4988929;28;20654;-71
2024/02/04 10:38:36;;;;;;;3.65;1.88;;;7.80;99.90;;;;;;4991659;28;20715;-72
2024/02/04 10:41:03;;;;;;;2.33;2.08;;;7.80;99.90;;;;;;4985973;28;20240;-73
2024/02/04 10:43:33;;;;;;;4.93;1.98;;;7.90;99.90;;;;;;4985856;28;20204;-70
2024/02/04 10:46:09;;;;;;;1.45;1.45;;;7.90;99.90;;;;;;4990434;28;20231;-71
2024/02/04 10:48:42;;;;;;;1.13;1.10;;;7.90;99.90;;;;;;4992740;28;20219;-71
2024/02/04 10:51:13;;;;;;;1.25;1.15;;;7.90;99.90;;;;;;4991327;28;20245;-71
2024/02/04 10:53:42;;;;;;;6.47;1.80;;;8.00;99.90;;;;;;4992132;28;20215;-70
2024/02/04 10:56:14;;;;;;;3.42;1.45;;;8.00;99.90;;;;;;4981715;28;20663;-68
2024/02/04 10:58:41;;;;;;;2.22;2.05;;;8.00;99.90;;;;;;4989142;28;20204;-69
2024/02/04 11:01:10;;;;;;;3.55;1.55;;;8.10;99.90;;;;;;4985663;28;20262;-68
2024/02/04 11:03:37;;;;;;;5.00;1.63;;;8.10;99.90;;;;;;4985815;28;21458;-69
2024/02/04 11:06:04;;;;;;;1.42;1.33;;;8.00;99.90;;;;;;4990204;28;20220;-70
2024/02/04 11:08:31;;;;;;;2.90;1.27;;;8.10;99.90;;;;;;4990666;28;20207;-70
2024/02/04 11:10:58;;;;;;;2.70;2.45;;;8.10;99.90;;;;;;4990708;28;20223;-69
2024/02/04 11:13:28;;;;;;;1.70;1.45;;;8.20;99.90;;;;;;4986548;28;20555;-69
2024/02/04 11:15:56;;;;;;;3.30;1.42;;;8.20;99.90;;;;;;4986405;28;20227;-71
2024/02/04 11:18:45;;;;;;;3.17;1.73;;;8.20;99.90;;;;;;4982566;28;20227;-71
2024/02/04 11:21:26;;;;;;;4.55;1.30;;;8.20;99.90;;;;;;4988405;28;20593;-70
2024/02/04 11:24:07;;;;;;;5.72;2.63;;;8.20;99.90;;;;;;4987789;28;20682;-70
2024/02/04 11:26:34;;;;;;;3.75;1.23;;;8.20;99.90;;;;;;4987092;28;20206;-70
2024/02/04 11:29:02;;;;;;;1.30;1.25;;;8.20;99.90;;;;;;4985296;28;20204;-70
2024/02/04 11:31:30;;;;;;;6.30;1.55;;;8.20;99.90;;;;;;4983478;28;20235;-70
2024/02/04 11:33:59;;;;;;;2.25;1.15;;;8.30;99.90;;;;;;4987910;28;20246;-72
2024/02/04 11:36:26;;;;;;;2.47;1.20;;;8.30;99.90;;;;;;4988093;28;20227;-71
2024/02/04 11:38:53;;;;;;;2.40;0.85;;;8.30;99.90;;;;;;4987826;28;20299;-71
2024/02/04 11:41:25;;;;;;;5.05;1.85;;;8.30;99.90;;;;;;4988812;28;20223;-70
2024/02/04 11:43:54;;;;;;;2.55;1.52;;;8.30;99.90;;;;;;4983438;28;20212;-70
2024/02/04 11:46:21;;;;;;;8.93;2.00;;;8.30;99.90;;;;;;4988428;28;20231;-71
2024/02/04 11:48:53;;;;;;;2.33;1.27;;;8.30;99.90;;;;;;4979729;28;20569;-71
2024/02/04 11:51:23;;;;;;;1.83;1.73;;;8.30;99.90;;;;;;4988582;28;20582;-71
2024/02/04 11:53:50;;;;;;;3.60;1.70;;;8.40;99.90;;;;;;4986674;28;20684;-71
2024/02/04 11:56:18;;;;;;;7.00;1.25;;;8.40;99.90;;;;;;4991530;28;20899;-70
2024/02/04 11:58:45;;;;;;;4.55;1.42;;;8.40;99.90;;;;;;4986138;28;20208;-73
2024/02/04 12:01:12;;;;;;;3.13;1.15;;;8.40;99.90;;;;;;4984178;28;20622;-73
2024/02/04 12:03:38;;;;;;;1.40;1.38;;;8.40;99.90;;;;;;4989424;28;20231;-69
2024/02/04 12:06:06;;;;;;;1.40;1.30;;;8.40;99.90;;;;;;4989473;28;20254;-70
2024/02/04 12:08:34;;;;;;;1.88;1.55;;;8.40;99.90;;;;;;4988563;28;20279;-68
2024/02/04 12:11:02;;;;;;;1.80;1.70;;;8.50;99.90;;;;;;4991179;28;20274;-70
2024/02/04 12:13:30;;;;;;;9.32;2.28;;;8.50;99.90;;;;;;4986274;28;20219;-70
2024/02/04 12:15:56;;;;;;;7.60;1.88;;;8.40;99.90;;;;;;4987843;28;20208;-72
2024/02/04 12:18:23;;;;;;;6.45;1.70;;;8.50;99.90;;;;;;4986500;28;20200;-69
2024/02/04 12:20:50;;;;;;;5.70;2.78;;;8.50;99.90;;;;;;4985592;28;20223;-71
2024/02/04 12:23:18;;;;;;;2.13;2.00;;;8.50;99.90;;;;;;4988001;28;20208;-70
2024/02/04 12:25:46;;;;;;;5.72;3.78;;;8.50;99.90;;;;;;4989346;28;20236;-70
2024/02/04 12:28:15;;;;;;;2.55;2.45;;;8.50;99.90;;;;;;4990414;28;20200;-70
2024/02/04 12:30:42;;;;;;;3.45;3.15;;;8.50;99.90;;;;;;4988301;28;20247;-70
2024/02/04 12:33:09;;;;;;;2.15;2.05;;;8.50;99.90;;;;;;4986914;28;20577;-70
2024/02/04 12:35:36;;;;;;;4.78;2.00;;;8.50;99.90;;;;;;4988863;28;20204;-70
2024/02/04 12:38:03;;;;;;;3.63;2.28;;;8.50;99.90;;;;;;4984340;28;20235;-71
2024/02/04 12:40:31;;;;;;;9.10;3.30;;;8.50;99.90;;;;;;4987516;28;20314;-70
2024/02/04 12:43:01;;;;;;;3.80;1.67;;;8.60;99.90;;;;;;4989029;28;20791;-68
2024/02/04 12:45:28;;;;;;;4.45;1.92;;;8.60;99.90;;;;;;4988495;28;20223;-69
2024/02/04 12:47:56;;;;;;;2.25;1.83;;;8.70;99.90;;;;;;4987867;28;21491;-69
2024/02/04 12:50:23;;;;;;;1.58;1.58;;;8.70;99.90;;;;;;4985601;28;20207;-69
2024/02/04 12:53:04;;;;;;;8.90;1.77;;;8.80;99.90;;;;;;4984579;28;20211;-68
2024/02/04 12:55:31;;;;;;;2.03;1.92;;;8.80;99.90;;;;;;4988461;28;20208;-69
2024/02/04 12:58:07;;;;;;;2.15;1.75;;;8.80;99.90;;;;;;4989296;28;20235;-68
2024/02/04 13:00:35;;;;;;;2.85;2.75;;;8.80;99.90;;;;;;4990982;28;20242;-69
2024/02/04 13:03:02;;;;;;;5.00;1.90;;;8.80;99.90;;;;;;4992419;28;20296;-69
2024/02/04 13:05:30;;;;;;;3.08;1.60;;;8.80;99.90;;;;;;4988608;28;20598;-70
2024/02/04 13:08:00;;;;;;;1.77;1.52;;;8.80;99.90;;;;;;4989508;28;20210;-70
2024/02/04 13:10:27;;;;;;;2.65;1.60;;;8.80;99.90;;;;;;4991682;28;20235;-70
2024/02/04 13:13:01;;;;;;;4.60;2.17;;;8.80;99.90;;;;;;4993832;28;20215;-69
2024/02/04 13:15:30;;;;;;;1.73;1.63;;;8.80;99.90;;;;;;4991804;28;20215;-69
2024/02/04 13:17:57;;;;;;;5.07;1.63;;;8.80;99.90;;;;;;4992596;28;20207;-70
2024/02/04 13:20:24;;;;;;;4.90;2.95;;;8.80;99.90;;;;;;4993628;28;20623;-69
2024/02/04 13:22:53;;;;;;;2.75;1.00;;;8.80;99.90;;;;;;4990603;28;20204;-69
2024/02/04 13:25:20;;;;;;;4.40;1.48;;;8.70;99.90;;;;;;4992985;28;20239;-70
2024/02/04 13:27:47;;;;;;;2.83;1.00;;;8.70;99.90;;;;;;4994169;28;20254;-69
2024/02/04 13:30:14;;;;;;;4.88;1.50;;;8.70;99.90;;;;;;4993373;28;20679;-68
2024/02/04 13:32:42;;;;;;;1.05;0.95;;;8.70;99.90;;;;;;4994700;28;20211;-69
2024/02/04 13:35:10;;;;;;;3.53;1.30;;;8.70;99.90;;;;;;4991812;28;20202;-71
2024/02/04 13:37:37;;;;;;;2.70;1.17;;;8.60;99.90;;;;;;4990365;28;20215;-70
2024/02/04 13:40:06;;;;;;;2.90;1.52;;;8.60;99.90;;;;;;4991992;28;20199;-69
2024/02/04 13:42:34;;;;;;;1.20;1.20;;;8.60;99.90;;;;;;4992564;28;20223;-70
2024/02/04 13:45:02;;;;;;;1.98;1.65;;;8.60;99.90;;;;;;4993872;28;20680;-70
2024/02/04 13:47:29;;;;;;;3.20;2.20;;;8.70;99.90;;;;;;4992953;28;20235;-69
2024/02/04 13:49:57;;;;;;;4.35;2.45;;;8.60;99.90;;;;;;4992727;28;20204;-71
2024/02/04 13:52:23;;;;;;;2.13;2.00;;;8.60;99.90;;;;;;4991452;28;20231;-71
2024/02/04 13:54:50;;;;;;;1.45;1.35;;;8.70;99.90;;;;;;4987673;28;20212;-69
2024/02/04 13:57:17;;;;;;;2.38;1.75;;;8.60;99.90;;;;;;4991191;28;20694;-72
2024/02/04 13:59:44;;;;;;;3.85;1.58;;;8.70;99.90;;;;;;4986888;28;20204;-72
2024/02/04 14:02:10;;;;;;;5.82;2.40;;;8.60;99.90;;;;;;4988672;28;20601;-69
2024/02/04 14:04:37;;;;;;;5.47;1.58;;;8.60;99.90;;;;;;4987090;28;20234;-69
2024/02/04 14:07:05;;;;;;;2.25;1.50;;;8.60;99.90;;;;;;4992377;28;20251;-70
2024/02/04 14:09:32;;;;;;;1.40;1.30;;;8.60;99.90;;;;;;4992474;28;20506;-69
2024/02/04 14:11:59;;;;;;;1.95;1.27;;;8.60;99.90;;;;;;4994242;28;20230;-70
2024/02/04 14:14:26;;;;;;;1.05;0.82;;;8.60;99.90;;;;;;4993020;28;20204;-70
2024/02/04 14:16:53;;;;;;;1.33;1.33;;;8.60;99.90;;;;;;4991863;28;20223;-69
2024/02/04 14:19:20;;;;;;;9.85;2.25;;;8.50;99.90;;;;;;4991593;28;20212;-74
2024/02/04 14:22:13;;;;;;;4.70;1.42;;;8.50;99.90;;;;;;4989912;28;20234;-69
2024/02/04 14:24:39;;;;;;;0.90;0.90;;;8.50;99.90;;;;;;4992193;28;20204;-69
2024/02/04 14:27:06;;;;;;;3.70;2.05;;;8.50;99.90;;;;;;4993849;28;20224;-68
2024/02/04 14:29:33;;;;;;;5.28;1.73;;;8.50;99.90;;;;;;4992350;28;20208;-69
2024/02/04 14:31:59;;;;;;;1.55;1.33;;;8.60;99.90;;;;;;4992404;28;20278;-69
2024/02/04 14:34:28;;;;;;;2.08;1.10;;;8.60;99.90;;;;;;4989909;28;20208;-71
2024/02/04 14:36:54;;;;;;;1.67;1.23;;;8.50;99.90;;;;;;4992251;28;20563;-71
2024/02/04 14:39:22;;;;;;;1.30;1.20;;;8.50;99.90;;;;;;4987403;28;20208;-70
2024/02/04 14:41:49;;;;;;;0.68;0.68;;;8.50;99.90;;;;;;4988012;28;20239;-68
2024/02/04 14:44:15;;;;;;;6.18;1.83;;;8.50;99.90;;;;;;4992315;28;20208;-68
2024/02/04 14:46:45;;;;;;;3.70;1.33;;;8.50;99.90;;;;;;4992166;28;20239;-70
2024/02/04 14:49:12;;;;;;;2.00;1.50;;;8.50;99.90;;;;;;4993679;28;20210;-71
2024/02/04 14:51:40;;;;;;;8.13;1.65;;;8.50;99.90;;;;;;4990789;28;20254;-72
2024/02/04 14:54:08;;;;;;;2.80;2.63;;;8.50;99.90;;;;;;4990341;28;20751;-71
2024/02/04 14:56:39;;;;;;;1.33;1.23;;;8.50;99.90;;;;;;4990450;28;20215;-71
2024/02/04 14:59:07;;;;;;;2.50;2.30;;;8.50;99.90;;;;;;4991296;28;20235;-72
2024/02/04 15:01:34;;;;;;;0.90;0.45;;;8.50;99.90;;;;;;4992044;28;20666;-71
2024/02/04 15:04:01;;;;;;;1.17;1.13;;;8.50;99.90;;;;;;4990346;28;20219;-70
2024/02/04 15:06:29;;;;;;;1.88;1.88;;;8.50;99.90;;;;;;4991527;28;20228;-72
2024/02/04 15:08:57;;;;;;;2.67;2.25;;;8.50;99.90;;;;;;4992278;28;20204;-72
2024/02/04 15:11:24;;;;;;;2.38;2.17;;;8.50;99.90;;;;;;4989444;28;20259;-70
2024/02/04 15:13:53;;;;;;;5.72;2.58;;;8.50;99.90;;;;;;4989133;28;20199;-71
2024/02/04 15:16:20;;;;;;;8.35;2.50;;;8.50;99.90;;;;;;4990486;28;20210;-70
2024/02/04 15:18:48;;;;;;;4.05;1.98;;;8.40;99.90;;;;;;4990863;28;20219;-68
2024/02/04 15:21:15;;;;;;;8.88;2.25;;;8.40;99.90;;;;;;4991174;28;20226;-72
2024/02/04 15:23:43;;;;;;;10.98;5.07;;;8.40;99.90;;;;;;4991444;28;20323;-71
2024/02/04 15:26:12;;;;;;;5.88;4.25;;;8.40;99.90;;;;;;4990292;28;20663;-70
2024/02/04 15:28:40;;;;;;;5.53;2.20;;;8.30;99.90;;;;;;4989667;28;20216;-70
2024/02/04 15:31:09;;;;;;;1.55;1.45;;;8.30;99.90;;;;;;4988982;28;20235;-69
2024/02/04 15:33:36;;;;;;;1.20;1.10;;;8.30;99.90;;;;;;4987794;28;20204;-70
2024/02/04 15:36:03;;;;;;;1.20;1.00;;;8.20;99.90;;;;;;4990716;28;20208;-70
2024/02/04 15:38:30;;;;;;;3.00;1.23;;;8.20;99.90;;;;;;4990993;28;20302;-71
2024/02/04 15:40:57;;;;;;;1.50;1.20;;;8.20;99.90;;;;;;4989300;28;20304;-70
2024/02/04 15:43:24;;;;;;;1.63;1.45;;;8.20;99.90;;;;;;4991134;28;20223;-70
2024/02/04 15:45:51;;;;;;;6.63;2.30;;;8.10;99.90;;;;;;4989493;28;20721;-70
2024/02/04 15:48:22;;;;;;;1.95;1.67;;;8.10;99.90;;;;;;4986070;28;20584;-70
2024/02/04 15:50:49;;;;;;;1.10;1.10;;;8.10;99.90;;;;;;4987298;28;20254;-69
2024/02/04 15:53:17;;;;;;;1.92;1.83;;;8.10;99.90;;;;;;4990366;28;20207;-70
2024/02/04 15:55:45;;;;;;;1.25;0.77;;;8.10;99.90;;;;;;4985128;28;20207;-70
2024/02/04 15:58:13;;;;;;;3.15;1.73;;;8.00;99.90;;;;;;4989467;28;20255;-71
2024/02/04 16:00:40;;;;;;;3.67;3.38;;;8.00;99.90;;;;;;4989896;28;20249;-69
2024/02/04 16:03:07;;;;;;;3.83;2.20;;;7.90;99.90;;;;;;4988118;28;20200;-69
2024/02/04 16:05:36;;;;;;;6.78;2.70;;;7.90;99.90;;;;;;4986888;28;20341;-71
2024/02/04 16:08:03;;;;;;;5.45;1.70;;;7.90;99.90;;;;;;4987713;28;20204;-70
2024/02/04 16:10:30;;;;;;;1.45;1.35;;;7.80;99.90;;;;;;4986945;28;20208;-72
2024/02/04 16:12:59;;;;;;;4.75;2.13;;;7.80;99.90;;;;;;4984743;28;20234;-69
2024/02/04 16:15:28;;;;;;;1.60;1.38;;;7.80;99.90;;;;;;4985839;28;20346;-71
2024/02/04 16:17:57;;;;;;;2.15;1.42;;;7.70;99.90;;;;;;4982270;28;20205;-71
2024/02/04 16:20:25;;;;;;;3.22;2.13;;;7.70;99.90;;;;;;4986656;28;20307;-71
2024/02/04 16:22:53;;;;;;;4.45;1.65;;;7.70;99.90;;;;;;4989495;28;20697;-73
2024/02/04 16:25:20;;;;;;;2.28;2.17;;;7.70;99.90;;;;;;4990469;28;20269;-70
2024/02/04 16:27:47;;;;;;;6.47;1.70;;;7.70;99.90;;;;;;4989044;28;20313;-69
2024/02/04 16:30:16;;;;;;;6.43;1.48;;;7.60;99.90;;;;;;4989476;28;20206;-70
2024/02/04 16:32:44;;;;;;;8.27;1.70;;;7.60;99.90;;;;;;4987395;28;20269;-71
2024/02/04 16:35:10;;;;;;;4.53;1.60;;;7.60;99.90;;;;;;4986015;28;20227;-71
2024/02/04 16:37:37;;;;;;;2.65;1.50;;;7.60;99.90;;;;;;4988535;28;20654;-71
2024/02/04 16:40:07;;;;;;;1.48;1.40;;;7.60;99.90;;;;;;4989812;28;20231;-73
2024/02/04 16:42:35;;;;;;;2.83;1.60;;;7.60;99.90;;;;;;4988652;28;20251;-69
2024/02/04 16:45:02;;;;;;;2.95;1.17;;;7.50;99.90;;;;;;4991084;28;20645;-69
2024/02/04 16:47:29;;;;;;;1.75;1.23;;;7.50;99.90;;;;;;4986109;28;20224;-68
2024/02/04 16:49:57;;;;;;;1.27;1.27;;;7.50;99.90;;;;;;4981301;28;20219;-70
2024/02/04 16:52:25;;;;;;;1.52;1.50;;;7.50;99.90;;;;;;4985011;28;20717;-70
2024/02/04 16:54:51;;;;;;;1.58;1.30;;;7.40;99.90;;;;;;4983910;28;20244;-69
2024/02/04 16:57:19;;;;;;;6.40;1.80;;;7.50;99.90;;;;;;4989393;28;20207;-68
2024/02/04 16:59:47;;;;;;;9.85;1.50;;;7.50;99.90;;;;;;4986799;28;20674;-69
2024/02/04 17:02:18;;;;;;;2.33;1.38;;;7.40;99.90;;;;;;4988762;28;20708;-69
2024/02/04 17:04:49;;;;;;;3.28;1.38;;;7.40;99.90;;;;;;4987763;28;20216;-69
2024/02/04 17:07:16;;;;;;;9.00;2.10;;;7.40;99.90;;;;;;4983343;28;20219;-70
2024/02/04 17:09:44;;;;;;;2.00;1.80;;;7.40;99.90;;;;;;4981347;28;20659;-71
2024/02/04 17:12:12;;;;;;;1.30;1.20;;;7.40;99.90;;;;;;4986976;28;20227;-69
2024/02/04 17:14:40;;;;;;;2.42;2.33;;;7.40;99.90;;;;;;4987105;28;20207;-68
2024/02/04 17:17:14;;;;;;;2.13;2.03;;;7.40;99.90;;;;;;4989087;28;20849;-69
2024/02/04 17:19:47;;;;;;;1.60;1.52;;;7.30;99.90;;;;;;4987517;28;20220;-68
2024/02/04 17:22:17;;;;;;;3.50;1.70;;;7.30;99.90;;;;;;4980776;28;20710;-71
2024/02/04 17:24:48;;;;;;;4.05;2.05;;;7.30;99.90;;;;;;4985338;28;20301;-71
2024/02/04 17:27:16;;;;;;;8.73;2.08;;;7.30;99.90;;;;;;4986669;28;20227;-69
2024/02/04 17:29:44;;;;;;;1.80;1.80;;;7.30;99.90;;;;;;4985477;28;20203;-70
2024/02/04 17:32:12;;;;;;;3.15;0.90;;;7.40;99.90;;;;;;4984851;28;20257;-69
2024/02/04 17:34:39;;;;;;;2.40;1.58;;;7.40;99.90;;;;;;4986793;28;20216;-68
2024/02/04 17:37:07;;;;;;;6.32;4.03;;;7.40;99.90;;;;;;4985381;28;20570;-70
2024/02/04 17:39:35;;;;;;;4.78;3.38;;;7.40;99.90;;;;;;4986132;28;20223;-70
2024/02/04 17:42:05;;;;;;;3.33;1.63;;;7.40;99.90;;;;;;4988332;28;20281;-70
2024/02/04 17:44:32;;;;;;;2.33;1.73;;;7.40;99.90;;;;;;4988947;28;20202;-70
2024/02/04 17:47:00;;;;;;;1.77;1.67;;;7.40;99.90;;;;;;4990016;28;20663;-70
2024/02/04 17:49:27;;;;;;;1.10;1.10;;;7.30;99.90;;;;;;4989660;28;20203;-69
2024/02/04 17:51:55;;;;;;;2.70;1.95;;;7.30;99.90;;;;;;4988506;28;20309;-70
2024/02/04 17:54:23;;;;;;;8.43;1.55;;;7.30;99.90;;;;;;4990118;28;20254;-69
2024/02/04 17:56:51;;;;;;;2.00;1.27;;;7.20;99.90;;;;;;4990781;28;20207;-70
2024/02/04 17:59:17;;;;;;;1.55;1.55;;;7.20;99.90;;;;;;4989976;28;20331;-69
2024/02/04 18:01:45;;;;;;;1.25;1.20;;;7.20;99.90;;;;;;4989746;28;20812;-69